Rabigh, Saudi Arabia
Current Conditions -  °F | °C
As of 7:00 AM on Thursday 27 Nov 2014 (Local Time) from OEJN Reporting Station
Clear Clear  
Wind Chill: 70°   Ceiling: Unl
Heat Index: 70°   Visibility: 6mi
Dew Point: 52°   Wind: 7mph
Humidity: 53%   Direction: 360°N
Pressure: 29.94"   Gusts: NA
Location:  22.8°N, 39.04°E
Report Text: OEJN 270400Z 36006KT CAVOK 21/11 Q1014 NOSIG
Loading
Personal Weather Stations






























Interactive Weather Map New forecast layout! Learn more

10-Day Weather Forecast

Advertisements
Track Severe Weather on mobile